sensor_id;sensor_type;location;lat;lon;timestamp;P1;durP1;ratioP1;P2;durP2;ratioP2
60999;SDS011;46879;45.658;11.814;2023-03-20T00:02:52;4.05;;;1.98;;
60999;SDS011;46879;45.658;11.814;2023-03-20T00:07:53;3.50;;;2.30;;
60999;SDS011;46879;45.658;11.814;2023-03-20T00:12:54;3.15;;;2.25;;
60999;SDS011;46879;45.658;11.814;2023-03-20T00:17:56;6.70;;;2.22;;
60999;SDS011;46879;45.658;11.814;2023-03-20T00:22:57;2.38;;;2.17;;
60999;SDS011;46879;45.658;11.814;2023-03-20T00:27:58;2.08;;;1.88;;
60999;SDS011;46879;45.658;11.814;2023-03-20T00:32:58;4.07;;;2.65;;
60999;SDS011;46879;45.658;11.814;2023-03-20T00:37:59;3.30;;;2.25;;
60999;SDS011;46879;45.658;11.814;2023-03-20T00:43:00;2.88;;;2.17;;
60999;SDS011;46879;45.658;11.814;2023-03-20T00:48:03;3.13;;;2.28;;
60999;SDS011;46879;45.658;11.814;2023-03-20T00:53:04;3.15;;;2.13;;
60999;SDS011;46879;45.658;11.814;2023-03-20T00:58:05;4.05;;;2.20;;
60999;SDS011;46879;45.658;11.814;2023-03-20T01:03:20;3.03;;;2.20;;
60999;SDS011;46879;45.658;11.814;2023-03-20T01:08:23;6.50;;;2.20;;
60999;SDS011;46879;45.658;11.814;2023-03-20T01:13:26;2.30;;;2.10;;
60999;SDS011;46879;45.658;11.814;2023-03-20T01:18:28;3.17;;;2.40;;
60999;SDS011;46879;45.658;11.814;2023-03-20T01:23:29;2.22;;;2.03;;
60999;SDS011;46879;45.658;11.814;2023-03-20T01:28:30;2.15;;;1.90;;
60999;SDS011;46879;45.658;11.814;2023-03-20T01:33:31;2.80;;;2.13;;
60999;SDS011;46879;45.658;11.814;2023-03-20T01:38:31;5.10;;;2.10;;
60999;SDS011;46879;45.658;11.814;2023-03-20T01:43:32;4.18;;;1.90;;
60999;SDS011;46879;45.658;11.814;2023-03-20T01:48:56;2.47;;;1.98;;
60999;SDS011;46879;45.658;11.814;2023-03-20T01:54:01;3.15;;;1.90;;
60999;SDS011;46879;45.658;11.814;2023-03-20T01:59:22;2.45;;;2.00;;
60999;SDS011;46879;45.658;11.814;2023-03-20T02:04:34;2.88;;;2.08;;
60999;SDS011;46879;45.658;11.814;2023-03-20T02:09:38;2.92;;;2.30;;
60999;SDS011;46879;45.658;11.814;2023-03-20T02:14:38;2.22;;;1.95;;
60999;SDS011;46879;45.658;11.814;2023-03-20T02:19:57;2.88;;;2.25;;
60999;SDS011;46879;45.658;11.814;2023-03-20T02:42:10;2.88;;;2.20;;
60999;SDS011;46879;45.658;11.814;2023-03-20T02:48:14;2.78;;;2.00;;
60999;SDS011;46879;45.658;11.814;2023-03-20T03:04:21;2.30;;;2.10;;
60999;SDS011;46879;45.658;11.814;2023-03-20T03:09:33;3.83;;;2.00;;
60999;SDS011;46879;45.658;11.814;2023-03-20T03:14:49;2.97;;;2.35;;
60999;SDS011;46879;45.658;11.814;2023-03-20T03:20:00;5.20;;;1.65;;
60999;SDS011;46879;45.658;11.814;2023-03-20T03:25:09;3.83;;;2.20;;
60999;SDS011;46879;45.658;11.814;2023-03-20T03:30:19;1.88;;;1.65;;
60999;SDS011;46879;45.658;11.814;2023-03-20T03:35:35;2.78;;;1.88;;
60999;SDS011;46879;45.658;11.814;2023-03-20T03:40:44;2.13;;;1.85;;
60999;SDS011;46879;45.658;11.814;2023-03-20T03:46:23;4.55;;;2.20;;
60999;SDS011;46879;45.658;11.814;2023-03-20T03:51:47;2.33;;;2.10;;
60999;SDS011;46879;45.658;11.814;2023-03-20T03:56:52;4.20;;;1.90;;
60999;SDS011;46879;45.658;11.814;2023-03-20T04:01:55;2.80;;;2.03;;
60999;SDS011;46879;45.658;11.814;2023-03-20T04:06:57;2.67;;;2.00;;
60999;SDS011;46879;45.658;11.814;2023-03-20T04:11:58;2.00;;;1.80;;
60999;SDS011;46879;45.658;11.814;2023-03-20T04:16:58;2.72;;;1.98;;
60999;SDS011;46879;45.658;11.814;2023-03-20T04:21:59;2.38;;;2.15;;
60999;SDS011;46879;45.658;11.814;2023-03-20T04:27:00;2.40;;;2.20;;
60999;SDS011;46879;45.658;11.814;2023-03-20T04:32:00;2.30;;;1.77;;
60999;SDS011;46879;45.658;11.814;2023-03-20T04:37:01;2.28;;;1.88;;
60999;SDS011;46879;45.658;11.814;2023-03-20T04:42:02;2.45;;;2.10;;
60999;SDS011;46879;45.658;11.814;2023-03-20T04:47:04;2.30;;;2.00;;
60999;SDS011;46879;45.658;11.814;2023-03-20T04:52:05;2.10;;;1.75;;
60999;SDS011;46879;45.658;11.814;2023-03-20T04:57:06;2.90;;;2.03;;
60999;SDS011;46879;45.658;11.814;2023-03-20T05:02:06;1.90;;;1.73;;
60999;SDS011;46879;45.658;11.814;2023-03-20T05:07:07;2.05;;;1.85;;
60999;SDS011;46879;45.658;11.814;2023-03-20T05:12:28;1.90;;;1.70;;
60999;SDS011;46879;45.658;11.814;2023-03-20T05:17:29;2.45;;;1.70;;
60999;SDS011;46879;45.658;11.814;2023-03-20T05:22:30;2.30;;;1.95;;
60999;SDS011;46879;45.658;11.814;2023-03-20T05:27:30;3.75;;;2.13;;
60999;SDS011;46879;45.658;11.814;2023-03-20T05:32:31;1.95;;;1.85;;
60999;SDS011;46879;45.658;11.814;2023-03-20T05:37:31;2.15;;;1.95;;
60999;SDS011;46879;45.658;11.814;2023-03-20T05:42:32;2.72;;;1.80;;
60999;SDS011;46879;45.658;11.814;2023-03-20T05:47:33;1.95;;;1.77;;
60999;SDS011;46879;45.658;11.814;2023-03-20T05:52:33;2.30;;;1.83;;
60999;SDS011;46879;45.658;11.814;2023-03-20T05:57:34;4.07;;;2.30;;
60999;SDS011;46879;45.658;11.814;2023-03-20T06:02:35;1.98;;;1.70;;
60999;SDS011;46879;45.658;11.814;2023-03-20T06:07:36;1.92;;;1.70;;
60999;SDS011;46879;45.658;11.814;2023-03-20T06:12:37;1.85;;;1.70;;
60999;SDS011;46879;45.658;11.814;2023-03-20T06:17:37;2.15;;;1.75;;
60999;SDS011;46879;45.658;11.814;2023-03-20T06:22:38;20.77;;;2.03;;
60999;SDS011;46879;45.658;11.814;2023-03-20T06:27:46;5.25;;;2.47;;
60999;SDS011;46879;45.658;11.814;2023-03-20T06:32:47;6.30;;;2.05;;
60999;SDS011;46879;45.658;11.814;2023-03-20T06:37:47;4.07;;;2.60;;
60999;SDS011;46879;45.658;11.814;2023-03-20T06:42:48;2.95;;;2.67;;
60999;SDS011;46879;45.658;11.814;2023-03-20T06:47:48;5.15;;;2.20;;
60999;SDS011;46879;45.658;11.814;2023-03-20T06:52:49;2.78;;;2.45;;
60999;SDS011;46879;45.658;11.814;2023-03-20T06:57:50;12.90;;;3.80;;
60999;SDS011;46879;45.658;11.814;2023-03-20T07:02:50;6.97;;;3.42;;
60999;SDS011;46879;45.658;11.814;2023-03-20T07:07:51;11.52;;;3.58;;
60999;SDS011;46879;45.658;11.814;2023-03-20T07:12:51;12.77;;;4.22;;
60999;SDS011;46879;45.658;11.814;2023-03-20T07:17:52;12.60;;;4.60;;
60999;SDS011;46879;45.658;11.814;2023-03-20T07:22:53;9.82;;;4.78;;
60999;SDS011;46879;45.658;11.814;2023-03-20T07:27:54;10.23;;;4.40;;
60999;SDS011;46879;45.658;11.814;2023-03-20T07:32:55;13.20;;;4.70;;
60999;SDS011;46879;45.658;11.814;2023-03-20T07:37:55;10.18;;;4.63;;
60999;SDS011;46879;45.658;11.814;2023-03-20T07:42:56;11.45;;;4.60;;
60999;SDS011;46879;45.658;11.814;2023-03-20T07:47:57;5.57;;;4.00;;
60999;SDS011;46879;45.658;11.814;2023-03-20T07:52:57;6.47;;;3.88;;
60999;SDS011;46879;45.658;11.814;2023-03-20T07:57:58;7.60;;;4.78;;
60999;SDS011;46879;45.658;11.814;2023-03-20T08:02:59;13.95;;;4.30;;
60999;SDS011;46879;45.658;11.814;2023-03-20T08:08:00;14.40;;;4.60;;
60999;SDS011;46879;45.658;11.814;2023-03-20T08:13:01;9.77;;;4.90;;
60999;SDS011;46879;45.658;11.814;2023-03-20T08:18:01;8.88;;;4.10;;
60999;SDS011;46879;45.658;11.814;2023-03-20T08:23:02;7.28;;;3.92;;
60999;SDS011;46879;45.658;11.814;2023-03-20T08:28:03;8.75;;;4.30;;
60999;SDS011;46879;45.658;11.814;2023-03-20T08:33:04;9.65;;;4.43;;
60999;SDS011;46879;45.658;11.814;2023-03-20T08:38:05;7.50;;;4.05;;
60999;SDS011;46879;45.658;11.814;2023-03-20T08:43:06;8.80;;;3.80;;
60999;SDS011;46879;45.658;11.814;2023-03-20T08:48:07;8.40;;;4.25;;
60999;SDS011;46879;45.658;11.814;2023-03-20T08:53:08;7.53;;;4.05;;
60999;SDS011;46879;45.658;11.814;2023-03-20T08:58:09;6.35;;;4.03;;
60999;SDS011;46879;45.658;11.814;2023-03-20T09:03:10;6.55;;;3.50;;
60999;SDS011;46879;45.658;11.814;2023-03-20T09:08:16;6.70;;;3.53;;
60999;SDS011;46879;45.658;11.814;2023-03-20T09:13:17;6.03;;;3.80;;
60999;SDS011;46879;45.658;11.814;2023-03-20T09:18:18;5.50;;;3.45;;
60999;SDS011;46879;45.658;11.814;2023-03-20T09:23:20;8.30;;;3.83;;
60999;SDS011;46879;45.658;11.814;2023-03-20T09:28:21;7.45;;;3.63;;
60999;SDS011;46879;45.658;11.814;2023-03-20T09:33:22;5.25;;;3.83;;
60999;SDS011;46879;45.658;11.814;2023-03-20T09:38:23;6.22;;;3.78;;
60999;SDS011;46879;45.658;11.814;2023-03-20T09:59:27;7.00;;;3.40;;
60999;SDS011;46879;45.658;11.814;2023-03-20T10:04:30;7.35;;;3.65;;
60999;SDS011;46879;45.658;11.814;2023-03-20T10:09:32;7.82;;;3.25;;
60999;SDS011;46879;45.658;11.814;2023-03-20T10:14:36;7.22;;;3.63;;
60999;SDS011;46879;45.658;11.814;2023-03-20T10:30:35;6.47;;;3.63;;
60999;SDS011;46879;45.658;11.814;2023-03-20T10:36:03;6.45;;;3.60;;
60999;SDS011;46879;45.658;11.814;2023-03-20T10:41:27;7.68;;;3.58;;
60999;SDS011;46879;45.658;11.814;2023-03-20T10:46:36;5.32;;;3.50;;
60999;SDS011;46879;45.658;11.814;2023-03-20T10:51:52;8.10;;;3.40;;
60999;SDS011;46879;45.658;11.814;2023-03-20T10:56:58;4.97;;;3.53;;
60999;SDS011;46879;45.658;11.814;2023-03-20T11:02:01;8.25;;;3.35;;
60999;SDS011;46879;45.658;11.814;2023-03-20T11:12:40;5.10;;;3.47;;
60999;SDS011;46879;45.658;11.814;2023-03-20T11:18:06;3.55;;;3.13;;
60999;SDS011;46879;45.658;11.814;2023-03-20T11:23:17;6.00;;;3.42;;
60999;SDS011;46879;45.658;11.814;2023-03-20T11:28:33;4.85;;;3.13;;
60999;SDS011;46879;45.658;11.814;2023-03-20T11:33:38;4.72;;;3.63;;
60999;SDS011;46879;45.658;11.814;2023-03-20T11:38:43;4.85;;;3.50;;
60999;SDS011;46879;45.658;11.814;2023-03-20T11:43:45;6.20;;;3.72;;
60999;SDS011;46879;45.658;11.814;2023-03-20T11:48:46;5.82;;;3.78;;
60999;SDS011;46879;45.658;11.814;2023-03-20T12:04:10;4.85;;;3.70;;
60999;SDS011;46879;45.658;11.814;2023-03-20T12:09:33;4.18;;;3.45;;
60999;SDS011;46879;45.658;11.814;2023-03-20T12:19:53;8.07;;;3.70;;
60999;SDS011;46879;45.658;11.814;2023-03-20T12:36:31;4.80;;;3.33;;
60999;SDS011;46879;45.658;11.814;2023-03-20T12:47:15;4.85;;;3.53;;
60999;SDS011;46879;45.658;11.814;2023-03-20T13:08:52;8.63;;;3.70;;
60999;SDS011;46879;45.658;11.814;2023-03-20T13:25:30;6.57;;;4.25;;
60999;SDS011;46879;45.658;11.814;2023-03-20T13:30:41;6.60;;;3.70;;
60999;SDS011;46879;45.658;11.814;2023-03-20T13:41:24;4.10;;;3.67;;
60999;SDS011;46879;45.658;11.814;2023-03-20T13:46:33;5.35;;;3.88;;
60999;SDS011;46879;45.658;11.814;2023-03-20T14:13:31;5.45;;;3.88;;
60999;SDS011;46879;45.658;11.814;2023-03-20T14:18:33;7.22;;;4.20;;
60999;SDS011;46879;45.658;11.814;2023-03-20T14:23:36;5.95;;;3.80;;
60999;SDS011;46879;45.658;11.814;2023-03-20T14:28:53;9.07;;;4.22;;
60999;SDS011;46879;45.658;11.814;2023-03-20T15:08:20;6.00;;;3.97;;
60999;SDS011;46879;45.658;11.814;2023-03-20T15:13:25;5.93;;;4.28;;
60999;SDS011;46879;45.658;11.814;2023-03-20T15:18:28;5.32;;;3.72;;
60999;SDS011;46879;45.658;11.814;2023-03-20T15:23:29;5.13;;;4.00;;
60999;SDS011;46879;45.658;11.814;2023-03-20T15:28:29;3.78;;;3.45;;
60999;SDS011;46879;45.658;11.814;2023-03-20T15:33:31;5.63;;;4.15;;
60999;SDS011;46879;45.658;11.814;2023-03-20T15:38:35;9.38;;;4.10;;
60999;SDS011;46879;45.658;11.814;2023-03-20T15:43:37;6.60;;;4.35;;
60999;SDS011;46879;45.658;11.814;2023-03-20T15:48:37;4.53;;;3.47;;
60999;SDS011;46879;45.658;11.814;2023-03-20T15:53:38;6.18;;;4.10;;
60999;SDS011;46879;45.658;11.814;2023-03-20T15:58:43;7.53;;;4.22;;
60999;SDS011;46879;45.658;11.814;2023-03-20T16:03:47;6.60;;;3.78;;
60999;SDS011;46879;45.658;11.814;2023-03-20T16:08:56;4.93;;;4.03;;
60999;SDS011;46879;45.658;11.814;2023-03-20T16:14:05;4.97;;;3.92;;
60999;SDS011;46879;45.658;11.814;2023-03-20T16:19:17;6.45;;;4.20;;
60999;SDS011;46879;45.658;11.814;2023-03-20T16:24:20;5.30;;;3.65;;
60999;SDS011;46879;45.658;11.814;2023-03-20T16:29:33;5.57;;;4.18;;
60999;SDS011;46879;45.658;11.814;2023-03-20T16:34:35;5.38;;;3.95;;
60999;SDS011;46879;45.658;11.814;2023-03-20T16:39:37;4.38;;;3.78;;
60999;SDS011;46879;45.658;11.814;2023-03-20T16:44:39;7.70;;;3.75;;
60999;SDS011;46879;45.658;11.814;2023-03-20T16:54:50;4.38;;;3.50;;
60999;SDS011;46879;45.658;11.814;2023-03-20T16:59:50;4.03;;;3.20;;
60999;SDS011;46879;45.658;11.814;2023-03-20T17:04:56;4.05;;;3.40;;
60999;SDS011;46879;45.658;11.814;2023-03-20T17:10:17;4.13;;;3.40;;
60999;SDS011;46879;45.658;11.814;2023-03-20T17:15:21;5.13;;;3.60;;
60999;SDS011;46879;45.658;11.814;2023-03-20T17:20:24;5.07;;;3.80;;
60999;SDS011;46879;45.658;11.814;2023-03-20T17:25:27;4.68;;;3.60;;
60999;SDS011;46879;45.658;11.814;2023-03-20T17:30:28;5.10;;;3.72;;
60999;SDS011;46879;45.658;11.814;2023-03-20T17:35:28;4.70;;;3.65;;
60999;SDS011;46879;45.658;11.814;2023-03-20T17:40:29;4.65;;;3.70;;
60999;SDS011;46879;45.658;11.814;2023-03-20T17:45:29;4.15;;;3.70;;
60999;SDS011;46879;45.658;11.814;2023-03-20T17:50:30;4.80;;;3.72;;
60999;SDS011;46879;45.658;11.814;2023-03-20T17:55:30;4.18;;;3.55;;
60999;SDS011;46879;45.658;11.814;2023-03-20T18:00:31;5.35;;;3.70;;
60999;SDS011;46879;45.658;11.814;2023-03-20T18:05:32;5.22;;;3.65;;
60999;SDS011;46879;45.658;11.814;2023-03-20T18:10:33;6.43;;;4.22;;
60999;SDS011;46879;45.658;11.814;2023-03-20T18:15:35;6.32;;;4.00;;
60999;SDS011;46879;45.658;11.814;2023-03-20T18:20:39;7.55;;;3.88;;
60999;SDS011;46879;45.658;11.814;2023-03-20T18:25:40;7.13;;;3.88;;
60999;SDS011;46879;45.658;11.814;2023-03-20T18:30:41;8.15;;;4.35;;
60999;SDS011;46879;45.658;11.814;2023-03-20T18:35:42;11.82;;;4.30;;
60999;SDS011;46879;45.658;11.814;2023-03-20T18:40:42;7.03;;;4.22;;
60999;SDS011;46879;45.658;11.814;2023-03-20T18:45:46;4.90;;;4.30;;
60999;SDS011;46879;45.658;11.814;2023-03-20T18:50:46;6.80;;;4.07;;
60999;SDS011;46879;45.658;11.814;2023-03-20T18:55:49;7.75;;;3.88;;
60999;SDS011;46879;45.658;11.814;2023-03-20T19:00:51;5.88;;;4.05;;
60999;SDS011;46879;45.658;11.814;2023-03-20T19:05:54;6.35;;;4.00;;
60999;SDS011;46879;45.658;11.814;2023-03-20T19:10:56;6.15;;;4.03;;
60999;SDS011;46879;45.658;11.814;2023-03-20T19:15:57;11.00;;;4.28;;
60999;SDS011;46879;45.658;11.814;2023-03-20T19:20:58;8.20;;;4.22;;
60999;SDS011;46879;45.658;11.814;2023-03-20T19:25:59;5.70;;;4.38;;
60999;SDS011;46879;45.658;11.814;2023-03-20T19:31:00;5.72;;;4.60;;
60999;SDS011;46879;45.658;11.814;2023-03-20T19:36:01;11.77;;;5.45;;
60999;SDS011;46879;45.658;11.814;2023-03-20T19:41:02;8.55;;;4.75;;
60999;SDS011;46879;45.658;11.814;2023-03-20T19:46:03;7.57;;;4.70;;
60999;SDS011;46879;45.658;11.814;2023-03-20T19:51:04;10.02;;;4.35;;
60999;SDS011;46879;45.658;11.814;2023-03-20T19:56:05;8.30;;;4.93;;
60999;SDS011;46879;45.658;11.814;2023-03-20T20:01:06;7.15;;;3.65;;
60999;SDS011;46879;45.658;11.814;2023-03-20T20:06:10;8.10;;;4.20;;
60999;SDS011;46879;45.658;11.814;2023-03-20T20:11:11;8.07;;;4.43;;
60999;SDS011;46879;45.658;11.814;2023-03-20T20:16:13;7.95;;;4.47;;
60999;SDS011;46879;45.658;11.814;2023-03-20T20:21:13;8.45;;;4.88;;
60999;SDS011;46879;45.658;11.814;2023-03-20T20:26:15;14.82;;;5.22;;
60999;SDS011;46879;45.658;11.814;2023-03-20T20:31:16;18.67;;;5.43;;
60999;SDS011;46879;45.658;11.814;2023-03-20T20:36:16;9.85;;;4.85;;
60999;SDS011;46879;45.658;11.814;2023-03-20T20:41:17;25.23;;;6.18;;
60999;SDS011;46879;45.658;11.814;2023-03-20T20:46:17;12.65;;;5.65;;
60999;SDS011;46879;45.658;11.814;2023-03-20T20:51:18;7.97;;;4.30;;
60999;SDS011;46879;45.658;11.814;2023-03-20T20:56:18;11.18;;;4.60;;
60999;SDS011;46879;45.658;11.814;2023-03-20T21:01:19;13.35;;;4.53;;
60999;SDS011;46879;45.658;11.814;2023-03-20T21:06:19;18.02;;;5.28;;
60999;SDS011;46879;45.658;11.814;2023-03-20T21:11:20;11.55;;;5.10;;
60999;SDS011;46879;45.658;11.814;2023-03-20T21:16:21;33.58;;;7.03;;
60999;SDS011;46879;45.658;11.814;2023-03-20T21:21:22;42.28;;;8.70;;
60999;SDS011;46879;45.658;11.814;2023-03-20T21:26:23;30.75;;;8.25;;
60999;SDS011;46879;45.658;11.814;2023-03-20T21:31:23;30.40;;;7.32;;
60999;SDS011;46879;45.658;11.814;2023-03-20T21:36:26;23.10;;;6.65;;
60999;SDS011;46879;45.658;11.814;2023-03-20T21:41:26;17.25;;;6.75;;
60999;SDS011;46879;45.658;11.814;2023-03-20T21:46:27;25.55;;;5.80;;
60999;SDS011;46879;45.658;11.814;2023-03-20T21:51:27;16.65;;;5.38;;
60999;SDS011;46879;45.658;11.814;2023-03-20T21:56:28;14.93;;;5.72;;
60999;SDS011;46879;45.658;11.814;2023-03-20T22:01:28;16.83;;;5.65;;
60999;SDS011;46879;45.658;11.814;2023-03-20T22:06:29;19.38;;;6.07;;
60999;SDS011;46879;45.658;11.814;2023-03-20T22:11:30;24.25;;;5.63;;
60999;SDS011;46879;45.658;11.814;2023-03-20T22:16:30;17.77;;;5.32;;
60999;SDS011;46879;45.658;11.814;2023-03-20T22:21:31;18.13;;;4.97;;
60999;SDS011;46879;45.658;11.814;2023-03-20T22:26:31;9.38;;;4.57;;
60999;SDS011;46879;45.658;11.814;2023-03-20T22:31:32;14.02;;;5.30;;
60999;SDS011;46879;45.658;11.814;2023-03-20T22:36:32;14.82;;;4.70;;
60999;SDS011;46879;45.658;11.814;2023-03-20T22:41:33;23.15;;;5.60;;
60999;SDS011;46879;45.658;11.814;2023-03-20T22:46:34;12.02;;;5.20;;
60999;SDS011;46879;45.658;11.814;2023-03-20T22:51:34;14.60;;;5.07;;
60999;SDS011;46879;45.658;11.814;2023-03-20T22:56:35;14.23;;;5.18;;
60999;SDS011;46879;45.658;11.814;2023-03-20T23:01:35;12.13;;;5.18;;
60999;SDS011;46879;45.658;11.814;2023-03-20T23:06:36;10.30;;;4.57;;
60999;SDS011;46879;45.658;11.814;2023-03-20T23:11:38;15.27;;;5.30;;
60999;SDS011;46879;45.658;11.814;2023-03-20T23:16:40;11.27;;;4.55;;
60999;SDS011;46879;45.658;11.814;2023-03-20T23:21:40;16.63;;;5.15;;
60999;SDS011;46879;45.658;11.814;2023-03-20T23:26:41;13.45;;;5.05;;
60999;SDS011;46879;45.658;11.814;2023-03-20T23:31:41;12.55;;;5.10;;
60999;SDS011;46879;45.658;11.814;2023-03-20T23:36:42;9.20;;;4.75;;
60999;SDS011;46879;45.658;11.814;2023-03-20T23:41:43;11.93;;;4.15;;
60999;SDS011;46879;45.658;11.814;2023-03-20T23:46:43;8.13;;;4.68;;
60999;SDS011;46879;45.658;11.814;2023-03-20T23:51:44;11.27;;;4.85;;
60999;SDS011;46879;45.658;11.814;2023-03-20T23:56:45;13.88;;;4.50;;
